createdAt,value
2019-02-15T00:01:29.938Z,10.85
2019-02-15T00:03:57.025Z,11.15
2019-02-15T00:06:24.121Z,11.05
2019-02-15T00:08:51.320Z,11.10
2019-02-15T00:11:19.026Z,11.48
2019-02-15T00:13:46.072Z,11.78
2019-02-15T00:16:13.312Z,11.30
2019-02-15T00:18:58.666Z,11.08
2019-02-15T00:21:29.637Z,10.28
2019-02-15T00:23:57.032Z,11.30
2019-02-15T00:26:24.168Z,12.53
2019-02-15T00:28:51.295Z,13.03
2019-02-15T00:31:20.067Z,11.93
2019-02-15T00:33:47.449Z,13.00
2019-02-15T00:36:14.688Z,11.78
2019-02-15T00:38:42.162Z,12.63
2019-02-15T00:41:09.468Z,11.50
2019-02-15T00:43:36.511Z,11.18
2019-02-15T00:46:15.199Z,11.35
2019-02-15T00:48:42.385Z,11.28
2019-02-15T00:51:38.205Z,10.48
2019-02-15T00:54:14.101Z,11.05
2019-02-15T00:56:54.166Z,10.58
2019-02-15T00:59:38.507Z,11.38
2019-02-15T01:02:17.127Z,11.03
2019-02-15T01:05:02.616Z,11.03
2019-02-15T01:07:58.239Z,10.72
2019-02-15T01:10:36.751Z,10.98
2019-02-15T01:13:10.159Z,10.68
2019-02-15T01:15:37.240Z,10.82
2019-02-15T01:18:04.412Z,10.95
2019-02-15T01:20:31.650Z,10.13
2019-02-15T01:22:58.895Z,10.88
2019-02-15T01:25:28.246Z,11.08
2019-02-15T01:28:03.309Z,11.35
2019-02-15T01:30:48.715Z,10.53
2019-02-15T01:33:30.195Z,9.75
2019-02-15T01:36:15.708Z,9.55
2019-02-15T01:39:05.277Z,10.40
2019-02-15T01:41:55.647Z,10.43
2019-02-15T01:44:42.325Z,9.78
2019-02-15T01:47:13.724Z,10.48
2019-02-15T01:49:41.143Z,10.82
2019-02-15T01:52:08.234Z,10.75
2019-02-15T01:54:35.271Z,10.63
2019-02-15T01:57:02.857Z,10.55
2019-02-15T01:59:30.168Z,10.20
2019-02-15T02:01:57.299Z,10.40
2019-02-15T02:04:24.746Z,11.08
2019-02-15T02:06:52.102Z,11.95
2019-02-15T02:09:19.649Z,11.10
2019-02-15T02:11:46.771Z,11.10
2019-02-15T02:14:14.180Z,10.40
2019-02-15T02:16:41.456Z,10.98
2019-02-15T02:19:08.705Z,11.22
2019-02-15T02:21:36.396Z,10.40
2019-02-15T02:24:03.589Z,11.15
2019-02-15T02:26:31.831Z,10.32
2019-02-15T02:28:59.063Z,10.78
2019-02-15T02:31:26.113Z,10.23
2019-02-15T02:33:53.203Z,11.75
2019-02-15T02:36:20.866Z,11.88
2019-02-15T02:38:48.907Z,12.18
2019-02-15T02:41:16.014Z,12.23
2019-02-15T02:43:43.070Z,11.65
2019-02-15T02:46:10.441Z,11.53
2019-02-15T02:48:37.570Z,11.85
2019-02-15T02:51:04.761Z,12.68
2019-02-15T02:53:31.889Z,11.22
2019-02-15T02:55:58.980Z,12.25
2019-02-15T02:58:25.989Z,11.97
2019-02-15T03:00:53.032Z,12.23
2019-02-15T03:03:20.060Z,10.65
2019-02-15T03:05:47.163Z,12.03
2019-02-15T03:08:14.187Z,11.85
2019-02-15T03:10:41.606Z,11.63
2019-02-15T03:13:08.611Z,11.73
2019-02-15T03:15:36.015Z,11.30
2019-02-15T03:18:03.178Z,12.78
2019-02-15T03:20:31.507Z,12.45
2019-02-15T03:22:58.977Z,11.57
2019-02-15T03:25:26.594Z,12.28
2019-02-15T03:27:53.912Z,12.95
2019-02-15T03:30:21.304Z,12.82
2019-02-15T03:32:48.394Z,11.60
2019-02-15T03:35:15.823Z,12.68
2019-02-15T03:37:49.143Z,12.78
2019-02-15T03:40:22.802Z,12.30
2019-02-15T03:42:51.359Z,12.15
2019-02-15T03:45:18.682Z,11.50
2019-02-15T03:47:45.798Z,12.03
2019-02-15T03:50:13.337Z,12.65
2019-02-15T03:52:40.466Z,12.82
2019-02-15T03:55:07.840Z,13.15
2019-02-15T03:57:35.178Z,12.40
2019-02-15T04:00:02.802Z,12.78
2019-02-15T04:02:30.057Z,13.15
2019-02-15T04:04:57.072Z,12.10
2019-02-15T04:07:24.716Z,12.85
2019-02-15T04:09:51.928Z,12.30
2019-02-15T04:12:19.276Z,12.50
2019-02-15T04:14:46.394Z,12.95
2019-02-15T04:17:13.765Z,12.85
2019-02-15T04:19:41.572Z,12.25
2019-02-15T04:22:08.901Z,11.65
2019-02-15T04:24:36.299Z,12.95
2019-02-15T04:27:03.428Z,12.68
2019-02-15T04:29:30.549Z,12.55
2019-02-15T04:31:57.595Z,11.40
2019-02-15T04:34:24.760Z,12.65
2019-02-15T04:36:52.755Z,12.58
2019-02-15T04:39:20.300Z,13.08
2019-02-15T04:41:47.270Z,13.53
2019-02-15T04:44:14.559Z,12.90
2019-02-15T04:46:41.870Z,13.25
2019-02-15T04:49:08.952Z,12.82
2019-02-15T04:51:36.101Z,12.28
2019-02-15T04:54:03.139Z,12.53
2019-02-15T04:56:30.525Z,12.53
2019-02-15T04:58:57.919Z,11.75
2019-02-15T05:01:24.912Z,12.63
2019-02-15T05:03:52.081Z,12.13
2019-02-15T05:06:19.166Z,12.03
2019-02-15T05:08:46.175Z,12.05
2019-02-15T05:11:13.182Z,11.60
2019-02-15T05:13:40.447Z,12.93
2019-02-15T05:16:07.480Z,11.90
2019-02-15T05:18:35.009Z,12.47
2019-02-15T05:21:02.049Z,12.30
2019-02-15T05:23:29.134Z,12.37
2019-02-15T05:25:57.210Z,11.75
2019-02-15T05:28:24.553Z,10.78
2019-02-15T05:30:51.714Z,12.35
2019-02-15T05:33:18.785Z,11.55
2019-02-15T05:35:45.836Z,12.03
2019-02-15T05:38:13.327Z,11.78
2019-02-15T05:40:40.290Z,11.50
2019-02-15T05:43:07.420Z,12.05
2019-02-15T05:45:35.186Z,11.22
2019-02-15T05:48:02.358Z,11.85
2019-02-15T05:50:29.492Z,11.95
2019-02-15T05:52:56.988Z,11.63
2019-02-15T05:55:23.978Z,11.10
2019-02-15T05:57:51.248Z,12.25
2019-02-15T06:00:18.421Z,12.55
2019-02-15T06:02:45.482Z,12.23
2019-02-15T06:05:12.592Z,12.80
2019-02-15T06:07:39.774Z,12.03
2019-02-15T06:10:07.170Z,12.40
2019-02-15T06:12:34.667Z,12.93
2019-02-15T06:15:01.778Z,12.55
2019-02-15T06:17:28.879Z,11.97
2019-02-15T06:19:57.387Z,11.90
2019-02-15T06:22:24.604Z,11.35
2019-02-15T06:24:51.650Z,11.43
2019-02-15T06:27:18.759Z,11.53
2019-02-15T06:29:46.005Z,12.03
2019-02-15T06:32:13.516Z,11.60
2019-02-15T06:34:40.646Z,11.57
2019-02-15T06:37:07.836Z,11.40
2019-02-15T06:39:34.975Z,10.90
2019-02-15T06:42:04.932Z,11.90
2019-02-15T06:44:32.487Z,11.70
2019-02-15T06:46:59.487Z,11.73
2019-02-15T06:49:26.582Z,12.35
2019-02-15T06:51:54.238Z,10.88
2019-02-15T06:54:21.501Z,12.03
2019-02-15T06:56:48.914Z,11.40
2019-02-15T06:59:31.002Z,11.45
2019-02-15T07:02:30.214Z,11.20
2019-02-15T07:05:16.654Z,11.22
2019-02-15T07:07:44.036Z,11.67
2019-02-15T07:10:11.063Z,11.65
2019-02-15T07:12:38.707Z,12.00
2019-02-15T07:15:05.963Z,11.53
2019-02-15T07:17:33.526Z,11.65
2019-02-15T07:20:00.779Z,11.83
2019-02-15T07:22:27.864Z,11.85
2019-02-15T07:24:54.933Z,11.55
2019-02-15T07:27:21.986Z,10.98
2019-02-15T07:29:49.067Z,11.90
2019-02-15T07:32:16.188Z,11.48
2019-02-15T07:34:43.372Z,10.65
2019-02-15T07:37:10.438Z,10.50
2019-02-15T07:39:37.504Z,11.03
2019-02-15T07:42:04.655Z,10.38
2019-02-15T07:44:31.692Z,10.25
2019-02-15T07:46:58.944Z,10.23
2019-02-15T07:49:27.142Z,10.23
2019-02-15T07:51:54.383Z,11.38
2019-02-15T07:54:21.422Z,9.90
2019-02-15T07:56:48.406Z,10.58
2019-02-15T07:59:15.822Z,10.53
2019-02-15T08:01:42.851Z,11.28
2019-02-15T08:04:10.407Z,10.38
2019-02-15T08:06:37.915Z,11.03
2019-02-15T08:09:10.582Z,9.93
2019-02-15T08:11:37.786Z,9.28
2019-02-15T08:14:04.873Z,10.55
2019-02-15T08:16:32.170Z,10.15
2019-02-15T08:18:59.194Z,10.18
2019-02-15T08:21:26.275Z,10.48
2019-02-15T08:23:53.359Z,9.75
2019-02-15T08:26:21.395Z,10.20
2019-02-15T08:28:48.979Z,10.28
2019-02-15T08:31:16.756Z,10.50
2019-02-15T08:33:44.067Z,10.70
2019-02-15T08:36:11.319Z,10.70
2019-02-15T08:38:38.504Z,9.98
2019-02-15T08:41:05.548Z,10.35
2019-02-15T08:43:34.534Z,10.93
2019-02-15T08:46:03.435Z,11.03
2019-02-15T08:48:30.853Z,9.60
2019-02-15T08:50:57.946Z,10.45
2019-02-15T08:53:24.997Z,10.25
2019-02-15T08:55:52.455Z,9.68
2019-02-15T08:58:19.573Z,9.00
2019-02-15T09:00:46.607Z,9.63
2019-02-15T09:03:14.010Z,10.50
2019-02-15T09:05:41.048Z,9.80
2019-02-15T09:08:08.174Z,9.65
2019-02-15T09:10:35.179Z,10.03
2019-02-15T09:13:02.274Z,10.58
2019-02-15T09:15:29.363Z,10.03
2019-02-15T09:17:56.602Z,9.85
2019-02-15T09:20:23.725Z,10.60
2019-02-15T09:22:50.838Z,9.20
2019-02-15T09:25:17.907Z,10.80
2019-02-15T09:28:13.270Z,10.20
2019-02-15T09:30:40.826Z,10.48
2019-02-15T09:33:08.255Z,10.18
2019-02-15T09:35:35.399Z,10.48
2019-02-15T09:38:03.559Z,10.15
2019-02-15T09:40:31.028Z,10.32
2019-02-15T09:42:58.107Z,10.25
2019-02-15T09:45:25.273Z,10.20
2019-02-15T09:47:52.395Z,10.00
2019-02-15T09:50:19.678Z,10.55
2019-02-15T09:52:47.007Z,10.40
2019-02-15T09:55:14.077Z,10.88
2019-02-15T09:57:41.531Z,10.25
2019-02-15T10:00:09.908Z,9.78
2019-02-15T10:02:36.936Z,10.25
2019-02-15T10:05:04.343Z,10.98
2019-02-15T10:07:31.871Z,10.13
2019-02-15T10:09:59.079Z,11.00
2019-02-15T10:12:26.386Z,10.15
2019-02-15T10:14:53.480Z,9.90
2019-02-15T10:17:20.526Z,9.85
2019-02-15T10:19:47.570Z,10.10
2019-02-15T10:22:14.671Z,10.00
2019-02-15T10:24:41.737Z,10.13
2019-02-15T10:27:08.766Z,10.95
2019-02-15T10:29:35.895Z,10.35
2019-02-15T10:32:03.454Z,11.45
2019-02-15T10:34:31.003Z,11.15
2019-02-15T10:36:58.173Z,11.55
2019-02-15T10:39:25.486Z,10.75
2019-02-15T10:41:53.253Z,9.43
2019-02-15T10:44:20.517Z,11.10
2019-02-15T10:46:48.046Z,10.00
2019-02-15T10:49:15.259Z,11.30
2019-02-15T10:51:42.628Z,11.60
2019-02-15T10:54:10.133Z,10.15
2019-02-15T10:56:37.683Z,10.85
2019-02-15T10:59:04.718Z,10.43
2019-02-15T11:01:32.043Z,10.80
2019-02-15T11:03:59.130Z,10.55
2019-02-15T11:06:28.976Z,9.68
2019-02-15T11:08:56.010Z,9.73
2019-02-15T11:11:23.127Z,10.15
2019-02-15T11:13:50.230Z,10.03
2019-02-15T11:16:17.300Z,10.30
2019-02-15T11:18:44.417Z,14.15
2019-02-15T11:21:11.601Z,12.15
2019-02-15T11:23:39.078Z,12.45
2019-02-15T11:26:06.442Z,13.13
2019-02-15T11:28:33.847Z,10.00
2019-02-15T11:31:01.006Z,9.30
2019-02-15T11:33:28.033Z,10.43
2019-02-15T11:35:55.309Z,9.70
2019-02-15T11:38:22.599Z,9.25
2019-02-15T11:40:49.774Z,9.08
2019-02-15T11:43:17.365Z,8.68
2019-02-15T11:45:44.545Z,8.98
2019-02-15T11:48:11.998Z,8.88
2019-02-15T11:50:40.468Z,8.95
2019-02-15T11:53:07.664Z,9.45
2019-02-15T11:55:34.779Z,9.28
2019-02-15T11:58:01.826Z,8.55
2019-02-15T12:00:32.193Z,8.88
2019-02-15T12:02:59.559Z,8.83
2019-02-15T12:05:26.796Z,8.78
2019-02-15T12:07:53.932Z,8.28
2019-02-15T12:10:21.036Z,9.30
2019-02-15T12:12:48.859Z,9.25
2019-02-15T12:15:16.333Z,8.85
2019-02-15T12:17:43.448Z,9.00
2019-02-15T12:20:12.342Z,8.43
2019-02-15T12:22:39.865Z,8.48
2019-02-15T12:25:09.983Z,8.40
2019-02-15T12:27:37.385Z,8.23
2019-02-15T12:30:05.790Z,7.92
2019-02-15T12:32:32.950Z,7.85
2019-02-15T12:35:00.297Z,7.72
2019-02-15T12:37:27.397Z,7.97
2019-02-15T12:39:54.872Z,8.93
2019-02-15T12:42:22.026Z,7.37
2019-02-15T12:44:49.207Z,7.70
2019-02-15T12:47:16.561Z,8.03
2019-02-15T12:49:43.804Z,9.13
2019-02-15T12:52:10.876Z,11.40
2019-02-15T12:54:37.866Z,8.20
2019-02-15T12:57:05.094Z,7.70
2019-02-15T12:59:32.551Z,7.55
2019-02-15T13:01:59.556Z,7.17
2019-02-15T13:04:26.680Z,7.28
2019-02-15T13:06:53.959Z,7.15
2019-02-15T13:09:21.413Z,7.55
2019-02-15T13:11:48.439Z,7.30
2019-02-15T13:14:16.022Z,6.92
2019-02-15T13:16:43.988Z,7.22
2019-02-15T13:19:11.143Z,6.40
2019-02-15T13:21:38.264Z,7.33
2019-02-15T13:24:05.335Z,6.75
2019-02-15T13:26:32.647Z,6.65
2019-02-15T13:28:59.870Z,5.67
2019-02-15T13:31:27.014Z,6.37
2019-02-15T13:33:54.322Z,6.33
2019-02-15T13:36:21.526Z,7.03
2019-02-15T13:38:48.776Z,5.85
2019-02-15T13:41:15.943Z,5.92
2019-02-15T13:43:43.355Z,5.78
2019-02-15T13:46:10.490Z,6.33
2019-02-15T13:48:38.004Z,5.78
2019-02-15T13:51:05.404Z,5.70
2019-02-15T13:53:32.678Z,5.30
2019-02-15T13:55:59.739Z,4.92
2019-02-15T13:58:26.767Z,4.47
2019-02-15T14:00:53.881Z,4.62
2019-02-15T14:03:21.060Z,4.42
2019-02-15T14:05:48.260Z,4.75
2019-02-15T14:08:15.282Z,4.05
2019-02-15T14:10:42.567Z,9.98
2019-02-15T14:13:09.698Z,8.05
2019-02-15T14:15:36.734Z,6.30
2019-02-15T14:18:04.292Z,10.72
2019-02-15T14:20:31.536Z,6.83
2019-02-15T14:22:58.529Z,6.60
2019-02-15T14:25:25.954Z,12.18
2019-02-15T14:27:53.097Z,6.50
2019-02-15T14:30:20.442Z,6.20
2019-02-15T14:32:47.799Z,5.08
2019-02-15T14:35:14.935Z,7.37
2019-02-15T14:37:42.294Z,6.53
2019-02-15T14:40:09.991Z,7.65
2019-02-15T14:42:37.281Z,8.58
2019-02-15T14:45:04.556Z,11.08
2019-02-15T14:47:31.631Z,8.75
2019-02-15T14:49:59.062Z,6.95
2019-02-15T14:52:26.729Z,14.00
2019-02-15T14:55:13.817Z,10.70
2019-02-15T14:57:41.453Z,18.05
2019-02-15T15:00:09.719Z,6.62
2019-02-15T15:02:37.868Z,9.65
2019-02-15T15:05:05.898Z,5.60
2019-02-15T15:07:33.022Z,4.30
2019-02-15T15:10:00.975Z,4.70
2019-02-15T15:12:28.297Z,6.67
2019-02-15T15:14:55.379Z,5.67
2019-02-15T15:19:57.978Z,3.40
2019-02-15T15:22:25.472Z,3.10
2019-02-15T15:24:53.546Z,4.62
2019-02-15T15:27:20.626Z,4.87
2019-02-15T15:29:50.386Z,4.05
2019-02-15T15:32:17.655Z,3.58
2019-02-15T15:34:44.701Z,4.75
2019-02-15T15:37:16.541Z,4.42
2019-02-15T15:39:41.133Z,3.55
2019-02-15T15:42:08.720Z,2.70
2019-02-15T15:44:36.087Z,5.35
2019-02-15T15:47:03.341Z,2.52
2019-02-15T15:49:31.078Z,2.20
2019-02-15T15:51:58.700Z,3.12
2019-02-15T15:54:25.668Z,2.90
2019-02-15T15:56:52.857Z,2.40
2019-02-15T15:59:20.582Z,1.98
2019-02-15T16:01:48.703Z,1.90
2019-02-15T16:04:15.986Z,2.50
2019-02-15T16:06:43.397Z,1.70
2019-02-15T16:09:10.518Z,2.55
2019-02-15T16:12:07.853Z,2.20
2019-02-15T16:14:42.638Z,3.17
2019-02-15T16:17:09.686Z,3.70
2019-02-15T16:19:40.488Z,4.40
2019-02-15T16:22:05.876Z,4.55
2019-02-15T16:24:33.028Z,4.12
2019-02-15T16:27:06.252Z,4.53
2019-02-15T16:29:33.374Z,4.80
2019-02-15T16:32:00.805Z,4.55
2019-02-15T16:34:27.856Z,4.20
2019-02-15T16:36:55.047Z,4.15
2019-02-15T16:39:22.127Z,4.28
2019-02-15T16:41:49.758Z,4.72
2019-02-15T16:44:17.226Z,4.67
2019-02-15T16:46:44.393Z,4.42
2019-02-15T16:49:11.795Z,4.37
2019-02-15T16:51:39.010Z,3.72
2019-02-15T16:54:06.430Z,4.00
2019-02-15T16:56:33.556Z,5.12
2019-02-15T16:59:00.668Z,4.17
2019-02-15T17:01:27.727Z,3.72
2019-02-15T17:03:55.003Z,3.98
2019-02-15T17:06:23.415Z,3.85
2019-02-15T17:08:51.055Z,3.60
2019-02-15T17:11:18.411Z,3.83
2019-02-15T17:13:45.410Z,3.92
2019-02-15T17:16:12.589Z,4.25
2019-02-15T17:18:39.953Z,4.47
2019-02-15T17:21:07.110Z,4.22
2019-02-15T17:23:34.939Z,4.95
2019-02-15T17:26:02.014Z,4.03
2019-02-15T17:28:29.735Z,3.92
2019-02-15T17:30:57.170Z,4.17
2019-02-15T17:33:25.396Z,4.62
2019-02-15T17:35:55.009Z,4.47
2019-02-15T17:38:22.635Z,4.40
2019-02-15T17:40:49.861Z,4.60
2019-02-15T17:43:17.315Z,4.87
2019-02-15T17:45:44.339Z,4.12
2019-02-15T17:48:11.417Z,7.33
2019-02-15T17:50:39.007Z,6.62
2019-02-15T17:53:06.230Z,7.92
2019-02-15T17:55:33.483Z,5.58
2019-02-15T17:58:01.184Z,4.50
2019-02-15T18:00:30.664Z,4.55
2019-02-15T18:02:57.962Z,4.42
2019-02-15T18:05:25.131Z,5.40
2019-02-15T18:07:52.725Z,4.45
2019-02-15T18:10:19.978Z,4.03
2019-02-15T18:12:47.094Z,5.00
2019-02-15T18:15:14.276Z,4.45
2019-02-15T18:17:41.919Z,4.70
2019-02-15T18:20:09.160Z,4.97
2019-02-15T18:22:36.690Z,5.03
2019-02-15T18:25:04.089Z,4.55
2019-02-15T18:27:31.523Z,4.58
2019-02-15T18:29:59.001Z,4.58
2019-02-15T18:32:26.110Z,4.50
2019-02-15T18:34:53.126Z,4.85
2019-02-15T18:37:20.587Z,4.75
2019-02-15T18:39:48.042Z,4.87
2019-02-15T18:42:15.078Z,5.87
2019-02-15T18:44:42.434Z,5.10
2019-02-15T18:47:09.869Z,6.37
2019-02-15T18:49:37.068Z,6.55
2019-02-15T18:52:04.270Z,6.92
2019-02-15T18:54:31.342Z,6.92
2019-02-15T18:56:58.394Z,6.40
2019-02-15T18:59:25.489Z,6.58
2019-02-15T19:01:53.314Z,6.37
2019-02-15T19:04:20.589Z,6.03
2019-02-15T19:06:47.611Z,5.95
2019-02-15T19:09:14.647Z,4.87
2019-02-15T19:11:42.325Z,5.95
2019-02-15T19:14:10.177Z,4.50
2019-02-15T19:16:37.412Z,5.37
2019-02-15T19:19:05.943Z,5.30
2019-02-15T19:21:34.078Z,5.08
2019-02-15T19:24:04.624Z,4.58
2019-02-15T19:26:35.383Z,5.03
2019-02-15T19:29:02.917Z,5.92
2019-02-15T19:31:30.272Z,5.90
2019-02-15T19:33:57.525Z,6.33
2019-02-15T19:36:25.263Z,6.12
2019-02-15T19:38:54.093Z,6.28
2019-02-15T19:41:24.420Z,6.58
2019-02-15T19:43:59.020Z,6.03
2019-02-15T19:46:26.474Z,6.42
2019-02-15T19:48:54.477Z,5.47
2019-02-15T19:51:21.581Z,5.87
2019-02-15T19:53:51.998Z,6.15
2019-02-15T19:56:23.115Z,6.03
2019-02-15T19:58:51.227Z,6.72
2019-02-15T20:01:18.810Z,6.65
2019-02-15T20:03:45.937Z,6.35
2019-02-15T20:06:13.116Z,5.80
2019-02-15T20:08:40.275Z,5.97
2019-02-15T20:11:07.623Z,5.00
2019-02-15T20:13:34.661Z,5.42
2019-02-15T20:16:02.097Z,4.40
2019-02-15T20:18:29.262Z,5.00
2019-02-15T20:20:56.617Z,5.00
2019-02-15T20:23:23.754Z,5.12
2019-02-15T20:25:51.539Z,5.12
2019-02-15T20:28:18.604Z,4.90
2019-02-15T20:30:46.036Z,4.60
2019-02-15T20:33:13.299Z,5.03
2019-02-15T20:35:40.651Z,5.50
2019-02-15T20:38:08.341Z,4.75
2019-02-15T20:40:35.742Z,4.72
2019-02-15T20:43:03.001Z,5.15
2019-02-15T20:45:30.661Z,4.12
2019-02-15T20:47:57.821Z,4.28
2019-02-15T20:50:24.979Z,4.28
2019-02-15T20:52:52.350Z,4.58
2019-02-15T20:55:19.419Z,4.85
2019-02-15T20:57:46.924Z,4.58
2019-02-15T21:00:16.920Z,5.10
2019-02-15T21:02:44.062Z,4.87
2019-02-15T21:05:11.522Z,5.28
2019-02-15T21:07:38.867Z,6.08
2019-02-15T21:10:07.537Z,5.35
2019-02-15T21:12:34.670Z,5.28
2019-02-15T21:15:01.897Z,5.17
2019-02-15T21:17:29.132Z,4.87
2019-02-15T21:19:56.183Z,7.12
2019-02-15T21:22:23.543Z,5.40
2019-02-15T21:24:50.584Z,5.42
2019-02-15T21:27:17.956Z,5.37
2019-02-15T21:29:45.154Z,4.90
2019-02-15T21:32:12.511Z,5.35
2019-02-15T21:34:39.631Z,5.40
2019-02-15T21:37:08.903Z,6.20
2019-02-15T21:39:36.249Z,5.22
2019-02-15T21:42:03.748Z,5.00
2019-02-15T21:44:31.371Z,5.42
2019-02-15T21:46:58.513Z,5.25
2019-02-15T21:49:25.917Z,5.17
2019-02-15T21:51:53.463Z,5.80
2019-02-15T21:54:20.510Z,5.40
2019-02-15T21:56:47.543Z,5.37
2019-02-15T21:59:14.748Z,5.87
2019-02-15T22:01:41.823Z,6.35
2019-02-15T22:04:09.151Z,5.80
2019-02-15T22:06:36.548Z,6.75
2019-02-15T22:09:05.069Z,6.53
2019-02-15T22:11:34.103Z,5.35
2019-02-15T22:14:01.231Z,5.17
2019-02-15T22:16:28.469Z,8.60
2019-02-15T22:18:55.459Z,5.80
2019-02-15T22:21:22.570Z,4.70
2019-02-15T22:23:49.911Z,5.33
2019-02-15T22:26:17.727Z,5.47
2019-02-15T22:28:45.365Z,6.78
2019-02-15T22:31:12.485Z,5.35
2019-02-15T22:33:39.716Z,5.20
2019-02-15T22:36:06.848Z,6.58
2019-02-15T22:38:34.064Z,5.25
2019-02-15T22:41:07.922Z,6.12
2019-02-15T22:43:35.355Z,5.22
2019-02-15T22:46:02.520Z,5.08
2019-02-15T22:48:29.565Z,4.25
2019-02-15T22:50:56.824Z,5.50
2019-02-15T22:53:24.155Z,4.72
2019-02-15T22:55:51.818Z,5.00
2019-02-15T22:58:19.312Z,6.85
2019-02-15T23:00:54.033Z,5.33
2019-02-15T23:03:23.205Z,4.22
2019-02-15T23:05:51.634Z,5.15
2019-02-15T23:08:20.427Z,5.12
2019-02-15T23:10:47.773Z,5.08
2019-02-15T23:13:15.046Z,5.97
2019-02-15T23:15:42.724Z,6.92
2019-02-15T23:18:09.827Z,5.42
2019-02-15T23:20:44.919Z,5.17
2019-02-15T23:23:06.119Z,4.85
2019-02-15T23:25:33.515Z,5.53
2019-02-15T23:28:00.634Z,4.65
2019-02-15T23:30:28.787Z,5.58
2019-02-15T23:32:55.886Z,4.90
2019-02-15T23:35:22.897Z,4.95
2019-02-15T23:37:50.526Z,4.90
2019-02-15T23:40:17.497Z,5.25
2019-02-15T23:42:44.570Z,5.08
2019-02-15T23:45:12.118Z,4.85
2019-02-15T23:47:39.137Z,5.00
2019-02-15T23:50:07.002Z,5.47
2019-02-15T23:52:34.155Z,5.42
2019-02-15T23:55:01.575Z,5.12
2019-02-15T23:57:29.026Z,5.42
2019-02-15T23:59:56.292Z,5.85
